Hlavní strana
METAR-TAF:

METAR-TAF

Letiště :

Blue Grass Airport

Lexington, Kentucky, Spojené státy americké

zeměpisná šířka: 38-02-27N, zeměpisná délka: 084-36-21W, výška: 298 m

Aktuální stav počasí

Zpráva byla vytvořena před 31 minutami, v 08:54 UTC
Severoseverozápadní vítr 4 kt
Teplota 4°C
Vlhkost vzduchu 65%
Tlak 1018 hPa
Viditelnost: 16.1 km
Jasno

METAR: KLEX 040854Z 34004KT 10SM CLR 04/M02 A3007 RMK AO2 SLP183 T00391017 51001

Čas: 04:25 (09:25 UTC)

Předpověď počasí

Zpráva byla vytvořena před 3 hodinami a 54 minutami, v 05:31 UTC
Předpověď platná od 04 v 06 UTC do 05 v 06 UTC
vítr z různých směrů 4 kt
Viditelnost: 10 km
Jasno
Od 04 v 1300 UTC
Severní vítr 6 kt
Viditelnost: 10 km
Jasno

TAF: KLEX 040531Z 0406/0506 VRB04KT P6SM SKC FM041300 01006KT P6SM SKC

Stav a předpovědi počasí z více než 4 000 letišť (zprávy METAR a TAF).

Červené a žluté tečky na mapě představují dostupné meteorologické stanice.

Když kurzor umístíte na tečku, zobrazí se název stanice.

Pak kliknutím zobrazíte stav a předpověď počasí.

Chcete-li změnit mapu, kliknutím na zelené tlačítko se znaménkem +mapu přiblížíte, kliknutím na zelené tlačítko se znaménkem – mapu oddálíte a kliknutím na zelené šipky přejdete na sousední mapy.


METAR-TAF: